Time;durP1;ratioP1;P1;durP2;ratioP2;P2;SDS_P1;SDS_P2;PMS_P1;PMS_P2;Temp;Humidity;BMP_temperature;BMP_pressure;BME280_temperature;BME280_humidity;BME280_pressure;Samples;Min_cycle;Max_cycle;Signal;HPM_P1;HPM_P2
2022/03/01 00:01:45;;;;;;;4.78;2.60;;;;;;;;;;5090333;28;20047;-72
2022/03/01 00:04:11;;;;;;;8.55;2.95;;;;;;;;;;5090064;28;20139;-72
2022/03/01 00:06:37;;;;;;;4.18;2.72;;;;;;;;;;5072070;28;20059;-71
2022/03/01 00:09:03;;;;;;;7.78;2.70;;;;;;;;;;5089767;28;20048;-72
2022/03/01 00:11:32;;;;;;;4.00;2.38;;;;;;;;;;5089987;28;20470;-72
2022/03/01 00:13:58;;;;;;;7.20;3.00;;;;;;;;;;5072029;28;20055;-72
2022/03/01 00:16:24;;;;;;;4.38;2.50;;;;;;;;;;5089783;28;20056;-73
2022/03/01 00:18:50;;;;;;;4.03;2.85;;;;;;;;;;5089319;28;20495;-72
2022/03/01 00:21:16;;;;;;;3.83;2.85;;;;;;;;;;5089766;28;20055;-72
2022/03/01 00:23:43;;;;;;;4.75;2.60;;;;;;;;;;5089492;28;20059;-73
2022/03/01 00:26:09;;;;;;;5.15;2.75;;;;;;;;;;5089718;28;20466;-72
2022/03/01 00:28:35;;;;;;;4.55;2.70;;;;;;;;;;5089179;28;20057;-73
2022/03/01 00:31:01;;;;;;;4.15;2.60;;;;;;;;;;5089773;28;20050;-71
2022/03/01 00:33:27;;;;;;;3.63;2.30;;;;;;;;;;5089446;28;20056;-71
2022/03/01 00:35:53;;;;;;;3.70;2.55;;;;;;;;;;5089736;28;20044;-71
2022/03/01 00:38:19;;;;;;;3.78;2.50;;;;;;;;;;5089131;28;20184;-73
2022/03/01 00:40:45;;;;;;;6.53;2.40;;;;;;;;;;5088010;28;20052;-72
2022/03/01 00:43:11;;;;;;;7.50;2.83;;;;;;;;;;5088889;28;20185;-71
2022/03/01 00:45:37;;;;;;;7.65;2.30;;;;;;;;;;5089377;28;20075;-71
2022/03/01 00:48:04;;;;;;;3.60;2.25;;;;;;;;;;5089454;28;20756;-71
2022/03/01 00:50:30;;;;;;;6.82;2.80;;;;;;;;;;5089080;28;20047;-71
2022/03/01 00:52:56;;;;;;;3.63;2.30;;;;;;;;;;5089082;28;20561;-70
2022/03/01 00:55:22;;;;;;;5.00;2.50;;;;;;;;;;5089100;28;20467;-70
2022/03/01 00:57:48;;;;;;;13.65;2.75;;;;;;;;;;5089306;28;20048;-69
2022/03/01 01:00:14;;;;;;;5.03;2.55;;;;;;;;;;5088598;28;20088;-70
2022/03/01 01:02:40;;;;;;;5.75;2.55;;;;;;;;;;5088969;28;20065;-69
2022/03/01 01:05:07;;;;;;;5.95;2.60;;;;;;;;;;5088920;28;20047;-70
2022/03/01 01:07:33;;;;;;;9.68;2.95;;;;;;;;;;5088718;28;20177;-70
2022/03/01 01:09:59;;;;;;;6.65;2.78;;;;;;;;;;5088610;28;20131;-70
2022/03/01 01:12:25;;;;;;;3.72;2.63;;;;;;;;;;5088467;28;20043;-70
2022/03/01 01:14:51;;;;;;;4.95;2.33;;;;;;;;;;5088494;28;20043;-71
2022/03/01 01:17:17;;;;;;;3.58;2.45;;;;;;;;;;5088747;28;20044;-70
2022/03/01 01:19:43;;;;;;;6.88;2.35;;;;;;;;;;5088446;28;20058;-71
2022/03/01 01:24:54;;;;;;;3.92;2.38;;;;;;;;;;5070463;28;20089;-71
2022/03/01 01:27:20;;;;;;;4.53;2.90;;;;;;;;;;5088060;28;20043;-70
2022/03/01 01:29:46;;;;;;;5.07;2.22;;;;;;;;;;5088791;28;20052;-71
2022/03/01 01:32:12;;;;;;;3.70;2.53;;;;;;;;;;5088695;28;20074;-71
2022/03/01 01:34:38;;;;;;;5.10;2.25;;;;;;;;;;5088169;28;20058;-71
2022/03/01 01:37:04;;;;;;;7.68;2.63;;;;;;;;;;5088563;28;20048;-71
2022/03/01 01:39:30;;;;;;;4.82;2.28;;;;;;;;;;5088253;28;20056;-71
2022/03/01 01:41:56;;;;;;;6.45;2.90;;;;;;;;;;5088607;28;20040;-71
2022/03/01 01:44:22;;;;;;;5.18;2.90;;;;;;;;;;5070131;28;20071;-72
2022/03/01 01:46:48;;;;;;;5.50;2.65;;;;;;;;;;5088488;28;20447;-71
2022/03/01 01:49:14;;;;;;;3.55;2.60;;;;;;;;;;5088435;28;20097;-71
2022/03/01 01:51:40;;;;;;;4.35;2.70;;;;;;;;;;5087313;28;20410;-71
2022/03/01 01:54:06;;;;;;;3.72;2.30;;;;;;;;;;5088371;28;20055;-72
2022/03/01 01:56:32;;;;;;;5.10;2.75;;;;;;;;;;5088462;28;20052;-71
2022/03/01 01:58:58;;;;;;;3.15;2.47;;;;;;;;;;5070013;28;20151;-71
2022/03/01 02:01:25;;;;;;;4.18;2.50;;;;;;;;;;5088337;28;20191;-71
2022/03/01 02:03:51;;;;;;;3.25;2.30;;;;;;;;;;5088344;28;20063;-71
2022/03/01 02:06:17;;;;;;;3.83;2.42;;;;;;;;;;5069844;28;20359;-72
2022/03/01 02:08:43;;;;;;;3.78;2.42;;;;;;;;;;5087976;28;20048;-72
2022/03/01 02:11:09;;;;;;;3.97;2.45;;;;;;;;;;5088529;28;20044;-72
2022/03/01 02:13:35;;;;;;;3.08;2.55;;;;;;;;;;5087401;28;20048;-70
2022/03/01 02:16:01;;;;;;;4.47;2.65;;;;;;;;;;5087905;28;20525;-69
2022/03/01 02:18:27;;;;;;;3.63;2.30;;;;;;;;;;5087305;28;20040;-70
2022/03/01 02:20:53;;;;;;;4.20;2.38;;;;;;;;;;5087486;28;20061;-71
2022/03/01 02:23:20;;;;;;;4.65;2.40;;;;;;;;;;5087147;28;20055;-69
2022/03/01 02:25:46;;;;;;;3.10;2.30;;;;;;;;;;5087459;28;20051;-70
2022/03/01 02:28:12;;;;;;;4.38;2.33;;;;;;;;;;5087265;28;20041;-71
2022/03/01 02:30:38;;;;;;;4.22;2.30;;;;;;;;;;5087210;28;20044;-71
2022/03/01 02:33:04;;;;;;;3.50;2.40;;;;;;;;;;5086791;28;20068;-70
2022/03/01 02:35:30;;;;;;;3.80;2.60;;;;;;;;;;5087147;28;20059;-70
2022/03/01 02:37:56;;;;;;;3.53;2.65;;;;;;;;;;5087217;28;20040;-68
2022/03/01 02:40:22;;;;;;;9.82;2.83;;;;;;;;;;5087170;28;20047;-70
2022/03/01 02:42:49;;;;;;;4.00;2.42;;;;;;;;;;5086487;28;20048;-70
2022/03/01 02:45:16;;;;;;;3.47;2.50;;;;;;;;;;5087317;28;20086;-70
2022/03/01 02:47:42;;;;;;;4.00;2.30;;;;;;;;;;5087633;28;20051;-70
2022/03/01 02:50:09;;;;;;;3.58;2.30;;;;;;;;;;5086979;28;20127;-70
2022/03/01 02:52:35;;;;;;;3.60;2.33;;;;;;;;;;5087116;28;20044;-69
2022/03/01 02:55:02;;;;;;;3.00;2.17;;;;;;;;;;5069055;28;20080;-70
2022/03/01 02:57:28;;;;;;;11.55;2.50;;;;;;;;;;5087037;28;20044;-71
2022/03/01 02:59:54;;;;;;;3.92;2.30;;;;;;;;;;5086845;28;20209;-71
2022/03/01 03:02:20;;;;;;;3.88;2.38;;;;;;;;;;5086974;28;20044;-71
2022/03/01 03:04:47;;;;;;;3.20;2.60;;;;;;;;;;5089114;28;20048;-70
2022/03/01 03:07:13;;;;;;;3.92;2.80;;;;;;;;;;5072666;28;20055;-70
2022/03/01 03:09:40;;;;;;;3.33;2.20;;;;;;;;;;5090380;28;20074;-70
2022/03/01 03:12:06;;;;;;;3.70;2.47;;;;;;;;;;5090117;28;20044;-70
2022/03/01 03:14:32;;;;;;;5.93;2.90;;;;;;;;;;5090185;28;20063;-71
2022/03/01 03:16:59;;;;;;;3.83;2.40;;;;;;;;;;5090535;28;20588;-71
2022/03/01 03:19:25;;;;;;;4.00;2.35;;;;;;;;;;5090358;28;20070;-72
2022/03/01 03:21:51;;;;;;;4.53;2.80;;;;;;;;;;5089722;28;20055;-72
2022/03/01 03:24:17;;;;;;;3.83;2.40;;;;;;;;;;5072396;28;20406;-72
2022/03/01 03:26:44;;;;;;;3.60;2.38;;;;;;;;;;5089941;28;20071;-70
2022/03/01 03:29:10;;;;;;;4.32;2.17;;;;;;;;;;5090403;28;20059;-71
2022/03/01 03:31:40;;;;;;;9.05;2.97;;;;;;;;;;5090136;28;20075;-70
2022/03/01 03:34:08;;;;;;;6.65;2.70;;;;;;;;;;5090122;28;20056;-70
2022/03/01 03:36:34;;;;;;;3.80;2.65;;;;;;;;;;5089459;28;20055;-72
2022/03/01 03:39:00;;;;;;;6.38;2.45;;;;;;;;;;5089777;28;20109;-72
2022/03/01 03:41:27;;;;;;;4.97;2.40;;;;;;;;;;5089991;28;20391;-72
2022/03/01 03:43:53;;;;;;;5.03;2.42;;;;;;;;;;5089913;28;20386;-71
2022/03/01 03:46:20;;;;;;;5.90;2.78;;;;;;;;;;5089414;28;20040;-70
2022/03/01 03:48:47;;;;;;;5.25;2.45;;;;;;;;;;5090017;28;20044;-72
2022/03/01 03:51:13;;;;;;;3.78;2.25;;;;;;;;;;5089848;28;20527;-73
2022/03/01 03:53:39;;;;;;;2.90;2.10;;;;;;;;;;5089557;28;20494;-71
2022/03/01 03:56:05;;;;;;;5.07;2.60;;;;;;;;;;5071497;28;20055;-72
2022/03/01 03:58:31;;;;;;;4.00;2.28;;;;;;;;;;5089032;28;20036;-71
2022/03/01 04:00:57;;;;;;;4.07;2.60;;;;;;;;;;5089988;28;20052;-70
2022/03/01 04:03:26;;;;;;;4.28;2.55;;;;;;;;;;5089652;28;20036;-70
2022/03/01 04:05:53;;;;;;;4.40;2.42;;;;;;;;;;5089663;28;20117;-70
2022/03/01 04:08:19;;;;;;;3.42;2.20;;;;;;;;;;5070910;28;20048;-71
2022/03/01 04:10:45;;;;;;;4.05;2.60;;;;;;;;;;5089076;28;20052;-71
2022/03/01 04:13:11;;;;;;;3.42;2.05;;;;;;;;;;5089404;28;20121;-71
2022/03/01 04:15:38;;;;;;;4.13;2.70;;;;;;;;;;5088949;28;20513;-71
2022/03/01 04:18:04;;;;;;;3.15;2.15;;;;;;;;;;5089359;28;20048;-71
2022/03/01 04:20:30;;;;;;;4.43;2.80;;;;;;;;;;5070842;28;20527;-71
2022/03/01 04:22:57;;;;;;;4.32;2.40;;;;;;;;;;5089228;28;20048;-71
2022/03/01 04:25:23;;;;;;;3.58;2.15;;;;;;;;;;5089720;28;20044;-71
2022/03/01 04:27:50;;;;;;;6.22;2.70;;;;;;;;;;5089776;28;20047;-70
2022/03/01 04:30:16;;;;;;;4.35;2.72;;;;;;;;;;5089751;28;20044;-71
2022/03/01 04:32:42;;;;;;;5.82;2.75;;;;;;;;;;5089097;28;20454;-72
2022/03/01 04:35:09;;;;;;;4.30;2.10;;;;;;;;;;5089609;28;20573;-71
2022/03/01 04:37:39;;;;;;;4.28;2.85;;;;;;;;;;5089414;28;20040;-72
2022/03/01 04:40:06;;;;;;;3.45;2.30;;;;;;;;;;5089513;28;20079;-70
2022/03/01 04:42:32;;;;;;;3.92;2.30;;;;;;;;;;5089031;28;20056;-71
2022/03/01 04:44:59;;;;;;;5.20;2.53;;;;;;;;;;5089087;28;20044;-71
2022/03/01 04:47:25;;;;;;;3.20;2.40;;;;;;;;;;5089360;28;20040;-70
2022/03/01 04:49:51;;;;;;;4.68;2.35;;;;;;;;;;5089352;28;20180;-71
2022/03/01 04:52:17;;;;;;;3.05;2.15;;;;;;;;;;5088966;28;20044;-71
2022/03/01 04:54:43;;;;;;;3.25;2.55;;;;;;;;;;5089363;28;20051;-70
2022/03/01 04:57:09;;;;;;;3.92;2.72;;;;;;;;;;5070774;28;20520;-72
2022/03/01 04:59:36;;;;;;;3.58;2.28;;;;;;;;;;5088998;28;20066;-71
2022/03/01 05:02:02;;;;;;;4.53;2.53;;;;;;;;;;5089313;28;20054;-72
2022/03/01 05:04:28;;;;;;;3.97;2.50;;;;;;;;;;5088810;28;20167;-70
2022/03/01 05:06:54;;;;;;;4.63;2.85;;;;;;;;;;5070349;28;20074;-71
2022/03/01 05:09:24;;;;;;;4.03;2.70;;;;;;;;;;5088686;28;20399;-71
2022/03/01 05:11:51;;;;;;;7.53;2.45;;;;;;;;;;5089141;28;20055;-69
2022/03/01 05:14:18;;;;;;;3.53;2.38;;;;;;;;;;5088776;28;20067;-69
2022/03/01 05:16:45;;;;;;;5.47;2.38;;;;;;;;;;5088333;28;20048;-69
2022/03/01 05:19:11;;;;;;;3.55;2.40;;;;;;;;;;5088644;28;20052;-70
2022/03/01 05:21:37;;;;;;;4.03;2.58;;;;;;;;;;5088514;28;20101;-72
2022/03/01 05:24:04;;;;;;;4.93;2.50;;;;;;;;;;5088921;28;20132;-71
2022/03/01 05:26:30;;;;;;;7.25;2.65;;;;;;;;;;5088122;28;20048;-71
2022/03/01 05:28:56;;;;;;;5.13;3.00;;;;;;;;;;5088336;28;20044;-69
2022/03/01 05:31:22;;;;;;;4.32;2.35;;;;;;;;;;5070304;28;20048;-69
2022/03/01 05:33:48;;;;;;;7.40;2.50;;;;;;;;;;5088558;28;20086;-69
2022/03/01 05:36:15;;;;;;;5.00;2.38;;;;;;;;;;5069918;28;20084;-69
2022/03/01 05:38:41;;;;;;;5.57;2.85;;;;;;;;;;5088512;28;20464;-69
2022/03/01 05:41:08;;;;;;;6.10;2.63;;;;;;;;;;5088211;28;20051;-69
2022/03/01 05:43:34;;;;;;;3.70;2.50;;;;;;;;;;5087871;28;20063;-69
2022/03/01 05:46:00;;;;;;;5.75;2.17;;;;;;;;;;5088237;28;20550;-69
2022/03/01 05:48:26;;;;;;;6.20;3.03;;;;;;;;;;5088290;28;20131;-70
2022/03/01 05:50:53;;;;;;;4.00;2.55;;;;;;;;;;5088568;28;20048;-70
2022/03/01 05:53:19;;;;;;;5.00;2.60;;;;;;;;;;5087862;28;20040;-71
2022/03/01 05:55:45;;;;;;;3.65;2.30;;;;;;;;;;5088031;28;20583;-70
2022/03/01 05:58:11;;;;;;;3.67;2.60;;;;;;;;;;5088332;28;20044;-70
2022/03/01 06:00:37;;;;;;;5.82;2.42;;;;;;;;;;5087679;28;20040;-71
2022/03/01 06:03:03;;;;;;;5.47;2.60;;;;;;;;;;5087004;28;20044;-71
2022/03/01 06:05:30;;;;;;;5.93;2.72;;;;;;;;;;5087894;28;20134;-70
2022/03/01 06:07:56;;;;;;;5.10;2.55;;;;;;;;;;5087675;28;20048;-71
2022/03/01 06:10:22;;;;;;;4.43;2.60;;;;;;;;;;5087096;28;20127;-71
2022/03/01 06:12:48;;;;;;;4.97;2.40;;;;;;;;;;5085861;28;20397;-71
2022/03/01 06:15:15;;;;;;;4.38;2.53;;;;;;;;;;5087565;28;20040;-71
2022/03/01 06:17:41;;;;;;;4.10;2.58;;;;;;;;;;5087287;28;20051;-74
2022/03/01 06:20:08;;;;;;;5.60;2.70;;;;;;;;;;5087381;28;20040;-70
2022/03/01 06:22:34;;;;;;;5.63;2.70;;;;;;;;;;5087878;28;20074;-69
2022/03/01 06:25:00;;;;;;;6.30;2.60;;;;;;;;;;5087753;28;20100;-69
2022/03/01 06:27:26;;;;;;;4.65;2.67;;;;;;;;;;5087843;28;20405;-72
2022/03/01 06:29:53;;;;;;;4.38;2.67;;;;;;;;;;5088302;28;20058;-71
2022/03/01 06:32:20;;;;;;;3.78;2.45;;;;;;;;;;5087623;28;20052;-72
2022/03/01 06:34:46;;;;;;;4.85;2.60;;;;;;;;;;5087816;28;20056;-70
2022/03/01 06:37:15;;;;;;;4.63;2.30;;;;;;;;;;5087745;28;20040;-71
2022/03/01 06:39:42;;;;;;;7.75;2.72;;;;;;;;;;5091307;28;20176;-72
2022/03/01 06:42:08;;;;;;;5.75;2.58;;;;;;;;;;5073631;28;20406;-71
2022/03/01 06:44:35;;;;;;;4.90;2.40;;;;;;;;;;5091646;28;20040;-72
2022/03/01 06:47:02;;;;;;;4.82;2.70;;;;;;;;;;5091852;28;20044;-71
2022/03/01 06:49:28;;;;;;;3.55;2.40;;;;;;;;;;5091803;28;20048;-70
2022/03/01 06:51:54;;;;;;;3.78;2.22;;;;;;;;;;5091140;28;20135;-70
2022/03/01 06:54:20;;;;;;;5.63;3.10;;;;;;;;;;5091676;28;20040;-71
2022/03/01 06:56:47;;;;;;;5.18;2.75;;;;;;;;;;5091648;28;20044;-71
2022/03/01 06:59:13;;;;;;;4.38;2.60;;;;;;;;;;5091138;28;20133;-69
2022/03/01 07:01:39;;;;;;;5.97;2.63;;;;;;;;;;5091582;28;20108;-73
2022/03/01 07:04:05;;;;;;;3.60;2.33;;;;;;;;;;5073414;28;20524;-71
2022/03/01 07:06:31;;;;;;;4.13;2.42;;;;;;;;;;5091174;28;20083;-71
2022/03/01 07:08:57;;;;;;;4.68;2.55;;;;;;;;;;5091463;28;20052;-71
2022/03/01 07:11:23;;;;;;;5.40;2.63;;;;;;;;;;5091469;28;20076;-69
2022/03/01 07:13:50;;;;;;;4.43;2.47;;;;;;;;;;5091046;28;20452;-71
2022/03/01 07:16:17;;;;;;;3.50;2.55;;;;;;;;;;5090985;28;20056;-71
2022/03/01 07:18:43;;;;;;;4.15;2.70;;;;;;;;;;5091264;28;20139;-70
2022/03/01 07:21:09;;;;;;;4.28;2.92;;;;;;;;;;5091419;28;20641;-70
2022/03/01 07:23:35;;;;;;;4.57;2.50;;;;;;;;;;5090878;28;20363;-72
2022/03/01 07:26:03;;;;;;;4.65;2.80;;;;;;;;;;5091546;28;20410;-73
2022/03/01 07:28:29;;;;;;;4.40;2.92;;;;;;;;;;5090983;28;20076;-72
2022/03/01 07:30:55;;;;;;;5.32;2.75;;;;;;;;;;5091166;28;20093;-73
2022/03/01 07:33:21;;;;;;;6.78;2.58;;;;;;;;;;5090607;28;20395;-73
2022/03/01 07:35:47;;;;;;;9.52;2.90;;;;;;;;;;5090782;28;20094;-71
2022/03/01 07:38:13;;;;;;;4.60;2.72;;;;;;;;;;5090989;28;20075;-70
2022/03/01 07:40:39;;;;;;;4.68;2.22;;;;;;;;;;5090835;28;20128;-70
2022/03/01 07:43:07;;;;;;;3.42;2.47;;;;;;;;;;5090284;28;20511;-71
2022/03/01 07:45:33;;;;;;;4.00;2.53;;;;;;;;;;5090622;28;20059;-70
2022/03/01 07:48:01;;;;;;;5.93;3.00;;;;;;;;;;5090968;28;20044;-70
2022/03/01 07:50:27;;;;;;;5.22;2.53;;;;;;;;;;5090058;28;20063;-72
2022/03/01 07:52:53;;;;;;;3.72;2.45;;;;;;;;;;5089896;28;20051;-72
2022/03/01 07:55:20;;;;;;;5.28;2.65;;;;;;;;;;5090599;28;20123;-72
2022/03/01 07:57:46;;;;;;;3.83;2.70;;;;;;;;;;5090481;28;20264;-71
2022/03/01 08:00:12;;;;;;;6.82;3.10;;;;;;;;;;5089944;28;20066;-71
2022/03/01 08:02:39;;;;;;;3.83;2.53;;;;;;;;;;5090420;28;20113;-72
2022/03/01 08:05:06;;;;;;;5.38;2.70;;;;;;;;;;5089319;28;20483;-72
2022/03/01 08:07:33;;;;;;;7.43;2.40;;;;;;;;;;5089542;28;20059;-71
2022/03/01 08:09:59;;;;;;;3.88;2.70;;;;;;;;;;5089547;28;20040;-70
2022/03/01 08:12:25;;;;;;;4.22;2.60;;;;;;;;;;5089620;28;20066;-74
2022/03/01 08:14:51;;;;;;;5.47;2.70;;;;;;;;;;5090462;28;20079;-71
2022/03/01 08:17:19;;;;;;;4.63;2.15;;;;;;;;;;5090286;28;20040;-71
2022/03/01 08:19:45;;;;;;;4.43;2.80;;;;;;;;;;5090349;28;20055;-72
2022/03/01 08:22:11;;;;;;;6.13;3.20;;;;;;;;;;5090311;28;20117;-72
2022/03/01 08:24:37;;;;;;;4.72;2.95;;;;;;;;;;5089690;28;20056;-72
2022/03/01 08:27:03;;;;;;;5.53;2.83;;;;;;;;;;5090242;28;20043;-71
2022/03/01 08:29:30;;;;;;;5.25;2.83;;;;;;;;;;5071981;28;20127;-70
2022/03/01 08:31:56;;;;;;;4.25;3.05;;;;;;;;;;5090250;28;20051;-70
2022/03/01 08:34:22;;;;;;;5.85;2.72;;;;;;;;;;5089314;28;20697;-72
2022/03/01 08:36:48;;;;;;;3.92;2.50;;;;;;;;;;5090049;28;20442;-72
2022/03/01 08:39:14;;;;;;;4.90;3.17;;;;;;;;;;5092952;28;20405;-71
2022/03/01 08:41:40;;;;;;;3.83;2.63;;;;;;;;;;5089836;28;20435;-70
2022/03/01 08:44:06;;;;;;;3.72;2.60;;;;;;;;;;5088973;28;20044;-72
2022/03/01 08:46:32;;;;;;;4.05;2.92;;;;;;;;;;5088564;28;20048;-72
2022/03/01 08:48:58;;;;;;;5.18;3.35;;;;;;;;;;5082589;28;20036;-72
2022/03/01 08:51:25;;;;;;;4.43;2.92;;;;;;;;;;5088087;28;20165;-71
2022/03/01 08:53:52;;;;;;;5.18;3.08;;;;;;;;;;5087111;28;20397;-71
2022/03/01 08:56:19;;;;;;;4.97;3.17;;;;;;;;;;5088784;28;20130;-69
2022/03/01 08:58:46;;;;;;;4.40;2.92;;;;;;;;;;5089289;28;20052;-70
2022/03/01 09:01:12;;;;;;;4.47;2.70;;;;;;;;;;5070112;28;20055;-70
2022/03/01 09:03:38;;;;;;;5.20;3.08;;;;;;;;;;5094511;28;20048;-71
2022/03/01 09:06:05;;;;;;;4.43;2.95;;;;;;;;;;5096516;28;20048;-72
2022/03/01 09:08:40;;;;;;;4.68;2.78;;;;;;;;;;5091115;28;20132;-73
2022/03/01 09:11:06;;;;;;;8.57;2.67;;;;;;;;;;5090013;28;20524;-71
2022/03/01 09:13:32;;;;;;;5.32;3.05;;;;;;;;;;5070453;28;20515;-70
2022/03/01 09:15:58;;;;;;;3.92;2.47;;;;;;;;;;5089457;28;20040;-73
2022/03/01 09:18:24;;;;;;;5.22;2.90;;;;;;;;;;5070671;28;20032;-72
2022/03/01 09:20:51;;;;;;;5.30;2.92;;;;;;;;;;5089480;28;20477;-73
2022/03/01 09:23:17;;;;;;;6.97;3.50;;;;;;;;;;5089253;28;20050;-70
2022/03/01 09:25:43;;;;;;;5.88;2.97;;;;;;;;;;5090234;28;20098;-69
2022/03/01 09:28:09;;;;;;;6.55;2.95;;;;;;;;;;5089992;28;20126;-72
2022/03/01 09:30:35;;;;;;;5.55;3.10;;;;;;;;;;5089529;28;20043;-74
2022/03/01 09:33:02;;;;;;;5.88;3.10;;;;;;;;;;5088754;28;20513;-71
2022/03/01 09:35:28;;;;;;;5.00;3.10;;;;;;;;;;5089264;28;20088;-74
2022/03/01 09:37:54;;;;;;;5.80;2.85;;;;;;;;;;5088673;28;20066;-74
2022/03/01 09:40:20;;;;;;;5.15;3.17;;;;;;;;;;5088323;28;20052;-71
2022/03/01 09:42:46;;;;;;;5.82;3.50;;;;;;;;;;5087994;28;20142;-69
2022/03/01 09:45:13;;;;;;;5.38;3.08;;;;;;;;;;5088691;28;20040;-69
2022/03/01 09:47:39;;;;;;;5.60;3.22;;;;;;;;;;5088286;28;20502;-73
2022/03/01 09:50:06;;;;;;;5.38;2.90;;;;;;;;;;5088477;28;20083;-75
2022/03/01 09:52:33;;;;;;;5.68;3.60;;;;;;;;;;5088157;28;20362;-75
2022/03/01 09:54:59;;;;;;;6.28;3.47;;;;;;;;;;5088433;28;20051;-72
2022/03/01 09:57:25;;;;;;;5.68;3.45;;;;;;;;;;5088533;28;20364;-71
2022/03/01 09:59:52;;;;;;;6.80;3.80;;;;;;;;;;5088595;28;20044;-70
2022/03/01 10:02:18;;;;;;;8.80;4.22;;;;;;;;;;5088431;28;20122;-71
2022/03/01 10:04:51;;;;;;;7.45;4.65;;;;;;;;;;5070116;28;20195;-71
2022/03/01 10:07:21;;;;;;;7.32;4.65;;;;;;;;;;5088812;28;20040;-72
2022/03/01 10:09:48;;;;;;;6.97;4.85;;;;;;;;;;5070691;28;20052;-71
2022/03/01 10:12:14;;;;;;;7.85;5.30;;;;;;;;;;5088567;28;20052;-71
2022/03/01 10:14:40;;;;;;;8.07;5.18;;;;;;;;;;5091452;28;20052;-72
2022/03/01 10:17:16;;;;;;;9.63;6.00;;;;;;;;;;5074336;28;20079;-71
2022/03/01 10:19:42;;;;;;;9.07;6.43;;;;;;;;;;5091531;28;20056;-72
2022/03/01 10:22:08;;;;;;;11.93;6.40;;;;;;;;;;5090597;28;20051;-71
2022/03/01 10:24:34;;;;;;;10.38;6.60;;;;;;;;;;5079902;28;20132;-71
2022/03/01 10:27:05;;;;;;;11.95;7.47;;;;;;;;;;5091519;28;20051;-73
2022/03/01 10:29:32;;;;;;;10.15;6.80;;;;;;;;;;5091387;28;20044;-72
2022/03/01 10:32:01;;;;;;;11.77;7.05;;;;;;;;;;5091639;28;20059;-70
2022/03/01 10:34:28;;;;;;;10.60;7.13;;;;;;;;;;5092002;28;20405;-68
2022/03/01 10:36:54;;;;;;;10.02;7.47;;;;;;;;;;5073616;28;20040;-69
2022/03/01 10:39:21;;;;;;;10.27;7.25;;;;;;;;;;5091993;28;20079;-70
2022/03/01 10:41:48;;;;;;;10.57;7.60;;;;;;;;;;5073644;28;20050;-68
2022/03/01 10:44:15;;;;;;;12.00;7.25;;;;;;;;;;5092203;28;20358;-69
2022/03/01 10:46:43;;;;;;;10.90;7.07;;;;;;;;;;5073789;28;20090;-70
2022/03/01 10:49:14;;;;;;;11.02;7.95;;;;;;;;;;5091104;28;20051;-69
2022/03/01 10:51:54;;;;;;;11.15;8.02;;;;;;;;;;5091012;28;20063;-69
2022/03/01 10:54:27;;;;;;;11.05;7.50;;;;;;;;;;5089945;28;20464;-69
2022/03/01 10:56:56;;;;;;;11.63;8.15;;;;;;;;;;5089785;28;20528;-70
2022/03/01 10:59:29;;;;;;;14.13;8.20;;;;;;;;;;5090771;28;20450;-69
2022/03/01 11:01:56;;;;;;;12.80;8.75;;;;;;;;;;5090031;28;20127;-70
2022/03/01 11:04:24;;;;;;;12.73;8.32;;;;;;;;;;5091034;28;20056;-70
2022/03/01 11:06:50;;;;;;;12.52;9.00;;;;;;;;;;5072677;28;20040;-69
2022/03/01 11:09:17;;;;;;;12.82;9.32;;;;;;;;;;5089894;28;20043;-69
2022/03/01 11:11:44;;;;;;;13.93;8.40;;;;;;;;;;5090671;28;20056;-69
2022/03/01 11:14:11;;;;;;;11.70;8.30;;;;;;;;;;5089327;28;20051;-69
2022/03/01 11:16:42;;;;;;;12.80;8.88;;;;;;;;;;5072460;28;20058;-68
2022/03/01 11:19:27;;;;;;;12.85;8.90;;;;;;;;;;5090624;28;20044;-69
2022/03/01 11:21:54;;;;;;;12.07;8.13;;;;;;;;;;5090941;28;20052;-71
2022/03/01 11:24:22;;;;;;;14.80;9.70;;;;;;;;;;5070874;28;20565;-69
2022/03/01 11:26:48;;;;;;;12.30;8.93;;;;;;;;;;5090249;28;20051;-71
2022/03/01 11:29:15;;;;;;;13.63;9.13;;;;;;;;;;5072629;28;20208;-70
2022/03/01 11:31:42;;;;;;;13.77;8.88;;;;;;;;;;5089896;28;20067;-71
2022/03/01 11:34:13;;;;;;;12.95;9.23;;;;;;;;;;5089237;28;20158;-71
2022/03/01 11:36:39;;;;;;;13.93;9.27;;;;;;;;;;5088923;28;20436;-70
2022/03/01 11:39:13;;;;;;;14.27;9.57;;;;;;;;;;5090078;28;20048;-70
2022/03/01 11:41:43;;;;;;;13.38;9.60;;;;;;;;;;5088759;28;20059;-70
2022/03/01 11:44:09;;;;;;;15.30;10.20;;;;;;;;;;5089718;28;20177;-69
2022/03/01 11:46:40;;;;;;;12.93;9.70;;;;;;;;;;5089702;28;20167;-69
2022/03/01 11:49:06;;;;;;;20.08;10.30;;;;;;;;;;5090041;28;20046;-67
2022/03/01 11:51:37;;;;;;;13.93;9.73;;;;;;;;;;5071691;28;20071;-68
2022/03/01 11:54:08;;;;;;;15.40;10.38;;;;;;;;;;5089977;28;20108;-67
2022/03/01 11:56:38;;;;;;;18.52;9.65;;;;;;;;;;5089877;28;20127;-67
2022/03/01 11:59:05;;;;;;;17.20;9.77;;;;;;;;;;5089410;28;20044;-67
2022/03/01 12:01:32;;;;;;;15.52;10.13;;;;;;;;;;5089526;28;20036;-67
2022/03/01 12:04:00;;;;;;;17.42;9.32;;;;;;;;;;5055802;28;20116;-67
2022/03/01 12:06:28;;;;;;;13.10;9.10;;;;;;;;;;5071492;28;20105;-67
2022/03/01 12:08:58;;;;;;;14.43;9.02;;;;;;;;;;5071482;28;20074;-68
2022/03/01 12:11:33;;;;;;;15.18;9.00;;;;;;;;;;5071253;28;20087;-67
2022/03/01 12:14:04;;;;;;;13.15;8.88;;;;;;;;;;5071037;28;20067;-67
2022/03/01 12:16:33;;;;;;;17.42;8.98;;;;;;;;;;5088944;28;20044;-67
2022/03/01 12:19:06;;;;;;;12.35;8.43;;;;;;;;;;5071083;28;20044;-67
2022/03/01 12:21:32;;;;;;;13.68;8.70;;;;;;;;;;5071529;28;20813;-67
2022/03/01 12:23:58;;;;;;;13.23;8.98;;;;;;;;;;5089570;28;20044;-67
2022/03/01 12:26:27;;;;;;;11.38;8.27;;;;;;;;;;5071172;28;20161;-67
2022/03/01 12:28:56;;;;;;;16.13;8.82;;;;;;;;;;5089465;28;20048;-67
2022/03/01 12:31:23;;;;;;;;;;;;;;;;;;5089057;28;20101;-67
2022/03/01 12:33:53;;;;;;;11.98;7.82;;;;;;;;;;5089262;28;19920;-67
2022/03/01 12:36:26;;;;;;;12.15;8.82;;;;;;;;;;5088963;28;20395;-66
2022/03/01 12:38:56;;;;;;;13.68;8.65;;;;;;;;;;5088336;28;20048;-67
2022/03/01 12:41:23;;;;;;;15.27;9.18;;;;;;;;;;5089016;28;20079;-66
2022/03/01 12:43:54;;;;;;;14.43;8.60;;;;;;;;;;5089563;28;20455;-66
2022/03/01 12:46:20;;;;;;;11.73;8.20;;;;;;;;;;5088563;28;20063;-66
2022/03/01 12:48:48;;;;;;;12.82;8.27;;;;;;;;;;5088461;28;20050;-66
2022/03/01 12:51:14;;;;;;;12.75;8.77;;;;;;;;;;5089004;28;20525;-66
2022/03/01 12:53:50;;;;;;;12.38;8.32;;;;;;;;;;5088329;28;20110;-66
2022/03/01 12:56:20;;;;;;;14.35;7.80;;;;;;;;;;5070684;28;20486;-66
2022/03/01 12:58:46;;;;;;;12.80;8.00;;;;;;;;;;5088051;28;20154;-66
2022/03/01 13:01:13;;;;;;;12.45;8.40;;;;;;;;;;5070187;28;20056;-66
2022/03/01 13:03:39;;;;;;;11.88;8.52;;;;;;;;;;5088464;28;20513;-67
2022/03/01 13:06:09;;;;;;;12.15;8.05;;;;;;;;;;5088230;28;20402;-66
2022/03/01 13:08:36;;;;;;;11.27;7.97;;;;;;;;;;5088344;28;20040;-66
2022/03/01 13:11:04;;;;;;;10.68;7.38;;;;;;;;;;5070157;28;20079;-66
2022/03/01 13:13:31;;;;;;;14.52;8.27;;;;;;;;;;5068763;28;20515;-69
2022/03/01 13:16:04;;;;;;;11.50;7.45;;;;;;;;;;5087954;28;20054;-66
2022/03/01 13:18:30;;;;;;;11.65;7.40;;;;;;;;;;5088161;28;20044;-66
2022/03/01 13:20:56;;;;;;;10.38;7.30;;;;;;;;;;5088249;28;20405;-66
2022/03/01 13:23:33;;;;;;;14.85;8.77;;;;;;;;;;5069610;28;20044;-69
2022/03/01 13:26:01;;;;;;;12.82;8.15;;;;;;;;;;5088151;28;20044;-67
2022/03/01 13:28:45;;;;;;;16.33;8.43;;;;;;;;;;5086805;28;20567;-67
2022/03/01 13:31:19;;;;;;;10.77;7.45;;;;;;;;;;5087785;28;20409;-67
2022/03/01 13:33:45;;;;;;;13.45;7.00;;;;;;;;;;5069573;28;20056;-67
2022/03/01 13:36:13;;;;;;;9.98;7.70;;;;;;;;;;5070406;28;20074;-67
2022/03/01 13:38:39;;;;;;;10.95;7.13;;;;;;;;;;5069773;28;20040;-67
2022/03/01 13:41:06;;;;;;;12.27;7.63;;;;;;;;;;5088225;28;20386;-67
2022/03/01 13:43:33;;;;;;;16.63;7.82;;;;;;;;;;5052432;28;20093;-66
2022/03/01 13:46:00;;;;;;;11.52;7.45;;;;;;;;;;5088326;28;20048;-67
2022/03/01 13:48:29;;;;;;;12.00;7.43;;;;;;;;;;5087390;28;20522;-66
2022/03/01 13:51:03;;;;;;;10.25;7.28;;;;;;;;;;5070322;28;20385;-67
2022/03/01 13:53:29;;;;;;;12.38;7.43;;;;;;;;;;5087574;28;20088;-68
2022/03/01 13:55:55;;;;;;;11.65;7.78;;;;;;;;;;5088039;28;20056;-67
2022/03/01 13:58:22;;;;;;;11.90;7.45;;;;;;;;;;5069898;28;20071;-68
2022/03/01 14:00:50;;;;;;;13.45;7.35;;;;;;;;;;5087692;28;20135;-68
2022/03/01 14:03:35;;;;;;;16.42;7.78;;;;;;;;;;5087878;28;20093;-68
2022/03/01 14:06:05;;;;;;;10.43;7.30;;;;;;;;;;5088088;28;20048;-69
2022/03/01 14:08:32;;;;;;;11.05;6.68;;;;;;;;;;5086744;28;20036;-68
2022/03/01 14:11:03;;;;;;;12.25;6.70;;;;;;;;;;5086451;28;20058;-69
2022/03/01 14:13:31;;;;;;;9.85;7.07;;;;;;;;;;5070225;28;20405;-68
2022/03/01 14:16:10;;;;;;;12.00;7.32;;;;;;;;;;5087805;28;20567;-67
2022/03/01 14:18:53;;;;;;;9.10;6.50;;;;;;;;;;5054900;28;20070;-67
2022/03/01 14:21:23;;;;;;;10.88;7.00;;;;;;;;;;5088053;28;20327;-68
2022/03/01 14:23:49;;;;;;;9.93;6.82;;;;;;;;;;5069476;28;20545;-67
2022/03/01 14:26:16;;;;;;;13.00;7.10;;;;;;;;;;5070327;28;20126;-68
2022/03/01 14:29:01;;;;;;;10.75;6.93;;;;;;;;;;5087294;28;20044;-68
2022/03/01 14:31:28;;;;;;;11.95;7.25;;;;;;;;;;5087066;28;20393;-71
2022/03/01 14:33:55;;;;;;;12.98;6.72;;;;;;;;;;5087196;28;20048;-67
2022/03/01 14:36:22;;;;;;;9.90;6.75;;;;;;;;;;5052750;28;20093;-68
2022/03/01 14:38:48;;;;;;;9.38;6.38;;;;;;;;;;5087731;28;20076;-67
2022/03/01 14:41:18;;;;;;;9.65;6.53;;;;;;;;;;5087169;28;20064;-68
2022/03/01 14:43:44;;;;;;;9.40;6.70;;;;;;;;;;5087550;28;20044;-67